Latest Weather Observations for Hobart

IDT60801

Issued at 11:05 pm EST Thursday 17 April 2014 (issued every 30 minutes, with the page automatically refreshed every 10 minutes)

About weather observations | Map of weather stations | Latest weather observations for TAS | Other Formats
Station Details ID: 094029 Name: HOBART (ELLERSLIE ROAD) Lat: -42.89 Lon: 147.33 Height: 50.5 m
Data from the previous 72 hours. | See also: Recent months at Hobart
Date/Time
EST
Temp
°C
App
Temp
°C
Dew
Point
Rel
Hum
%
Delta-T
°C
Wind Press
QNH
hPa
Press
MSL
hPa
Rain
since 9 am
mm
Dir
 
Spd
km/h
Gust
km/h
Spd
kts
Gust
kts
17/11:00pm 13.4 10.7 7.2 66 3.0 NW 11 15 6 8 1014.9 - 0.0
17/10:30pm 13.8 10.6 7.0 63 3.3 NNW 13 17 7 9 1015.4 - 0.0
17/10:00pm 13.6 10.6 7.5 66 3.0 NNW 13 15 7 8 1015.7 - 0.0
17/09:30pm 13.1 10.5 7.8 70 2.6 NW 11 17 6 9 1016.0 - 0.0
17/09:00pm 13.3 10.8 8.1 71 2.6 WNW 11 13 6 7 1016.1 1016.2 0.0
17/08:30pm 13.7 11.6 8.3 70 2.7 WNW 9 11 5 6 1016.2 - 0.0
17/08:00pm 14.0 11.9 8.4 69 2.8 W 9 11 5 6 1016.3 - 0.0
17/07:30pm 15.2 14.4 8.3 63 3.5 W 2 7 1 4 1016.2 - 0.0
17/07:00pm 15.9 15.2 8.4 61 3.8 WNW 2 7 1 4 1016.2 - 0.0
17/06:30pm 16.4 15.0 8.8 60 3.9 WNW 6 7 3 4 1016.2 - 0.0
17/06:00pm 17.0 15.6 8.9 59 4.2 WNW 6 9 3 5 1016.1 1016.2 0.0
17/05:30pm 18.8 15.5 6.6 45 6.1 N 13 20 7 11 1016.0 - 0.0
17/05:00pm 19.2 15.3 6.9 44 6.2 N 17 22 9 12 1015.8 - 0.0
17/04:30pm 19.7 16.6 7.3 44 6.3 NNE 13 20 7 11 1015.9 - 0.0
17/04:00pm 20.0 17.2 7.0 43 6.6 N 11 19 6 10 1016.2 - 0.0
17/03:30pm 20.2 17.4 7.0 42 6.7 NE 11 17 6 9 1016.6 - 0.0
17/03:00pm 20.5 16.9 6.7 40 7.0 NE 15 19 8 10 1017.0 1017.1 0.0
17/02:30pm 20.6 16.7 7.1 41 6.9 NNE 17 24 9 13 1017.3 - 0.0
17/02:00pm 21.1 17.5 6.7 39 7.3 N 15 20 8 11 1017.6 - 0.0
17/01:30pm 20.9 16.4 6.2 38 7.4 N 19 26 10 14 1018.0 - 0.0
17/01:00pm 20.2 15.4 5.6 38 7.2 N 20 30 11 16 1018.4 - 0.0
17/12:30pm 20.5 17.4 7.2 42 6.8 NNW 13 22 7 12 1019.0 - 0.0
17/12:00pm 19.2 15.3 6.9 44 6.2 NNW 17 26 9 14 1019.5 1019.6 0.0
17/11:30am 18.2 15.2 7.8 50 5.3 N 13 20 7 11 1020.0 - 0.0
17/11:00am 17.5 14.1 7.8 53 4.9 NNW 15 22 8 12 1020.3 - 0.0
17/10:30am 16.4 13.4 7.9 57 4.3 NNW 13 20 7 11 1020.4 - 0.0
17/10:00am 14.6 10.9 8.0 64 3.3 NNW 17 24 9 13 1020.5 - 0.0
17/09:30am 12.9 9.9 9.3 79 1.8 NW 15 22 8 12 1020.7 - 0.0
17/09:00am 12.3 9.4 8.0 75 2.1 NNW 13 20 7 11 1020.8 1020.9 0.0
17/08:30am 10.8 7.0 7.5 80 1.6 NNW 17 26 9 14 1020.9 - 0.0
17/08:00am 9.9 5.6 7.1 83 1.3 NW 19 26 10 14 1020.8 - 0.0
17/07:30am 9.4 5.5 7.3 87 1.0 NW 17 26 9 14 1020.8 - 0.0
17/07:00am 9.0 5.5 7.1 88 0.9 NW 15 22 8 12 1020.5 - 0.0
17/06:30am 9.4 5.5 7.3 87 1.0 NNW 17 22 9 12 1020.4 - 0.0
17/06:00am 9.4 5.5 7.3 87 1.0 NW 17 24 9 13 1020.3 1020.4 0.0
17/05:30am 9.2 6.5 7.5 89 0.8 NW 11 19 6 10 1020.2 - 0.0
17/05:00am 10.1 7.1 7.8 86 1.1 NNW 13 19 7 10 1020.2 - 0.0
17/04:30am 10.1 7.1 7.8 86 1.1 NW 13 19 7 10 1020.3 - 0.0
17/04:00am 9.8 7.6 7.9 88 0.9 NW 9 15 5 8 1020.0 - 0.0
17/03:30am 10.2 7.3 8.1 87 1.0 NW 13 19 7 10 1019.9 - 0.0
17/03:00am 9.7 7.1 7.8 88 0.9 W 11 13 6 7 1020.0 1020.1 0.0
17/02:30am 10.0 7.9 8.1 88 0.9 NW 9 13 5 7 1020.1 - 0.0
17/02:00am 10.6 8.6 8.6 87 1.0 W 9 13 5 7 1020.1 - 0.0
17/01:30am 10.4 8.4 8.6 89 0.9 W 9 13 5 7 1020.4 - 0.0
17/01:00am 10.5 9.1 8.7 89 0.9 W 6 9 3 5 1020.4 - 0.0
17/12:30am 10.7 10.5 8.9 89 0.9 CALM 0 0 0 0 1020.4 - 0.0
17/12:00am 11.2 10.0 9.4 89 0.9 N 6 7 3 4 1020.5 1020.6 0.0
 
Date/Time
EST
Temp
°C
App
Temp
°C
Dew
Point
Rel
Hum
%
Delta-T
°C
Wind Press
QNH
hPa
Press
MSL
hPa
Rain
since 9 am
mm
Dir
 
Spd
km/h
Gust
km/h
Spd
kts
Gust
kts
16/11:30pm 11.0 9.5 9.0 87 1.0 NNW 7 9 4 5 1020.5 - 0.0
16/11:00pm 11.6 10.2 9.4 86 1.1 NNE 7 11 4 6 1020.6 - 0.0
16/10:30pm 11.5 10.0 9.3 86 1.1 NW 7 9 4 5 1020.7 - 0.0
16/10:00pm 12.1 11.6 9.5 84 1.3 NNW 2 6 1 3 1020.6 - 0.0
16/09:30pm 12.3 10.9 9.5 83 1.4 N 7 11 4 6 1020.6 - 0.0
16/09:00pm 12.7 11.6 9.8 82 1.5 NNW 6 7 3 4 1020.5 1020.6 0.0
16/08:30pm 12.8 11.4 9.7 81 1.6 WNW 7 9 4 5 1020.4 - 0.0
16/08:00pm 13.1 12.8 10.0 81 1.6 NNW 2 7 1 4 1020.3 - 0.0
16/07:30pm 13.2 11.9 9.9 80 1.7 N 7 9 4 5 1020.1 - 0.0
16/07:00pm 13.9 13.6 10.0 77 2.0 SE 2 6 1 3 1020.3 - 0.0
16/06:30pm 14.3 14.0 10.1 76 2.2 WSW 2 9 1 5 1020.1 - 0.0
16/06:00pm 14.9 14.0 10.5 75 2.3 SSW 6 11 3 6 1019.9 1020.0 0.0
16/05:30pm 15.7 14.6 10.8 72 2.6 S 7 9 4 5 1019.8 - 0.0
16/05:00pm 16.3 15.3 11.1 71 2.8 SSE 7 11 4 6 1019.7 - 0.0
16/04:30pm 16.8 15.5 11.2 69 3.0 SE 9 13 5 7 1019.8 - 0.0
16/04:00pm 17.2 14.8 10.2 63 3.7 ESE 13 17 7 9 1019.8 - 0.0
16/03:30pm 17.3 15.1 10.8 65 3.5 ESE 13 17 7 9 1019.8 - 0.0
16/03:00pm 17.3 14.9 10.1 62 3.8 ESE 13 17 7 9 1019.9 1020.0 0.0
16/02:30pm 17.5 15.1 10.1 62 3.9 ESE 13 17 7 9 1020.1 - 0.0
16/02:00pm 17.2 14.6 9.3 59 4.1 ESE 13 15 7 8 1020.3 - 0.0
16/01:30pm 17.4 15.3 8.2 54 4.7 ESE 9 13 5 7 1020.5 - 0.0
16/01:00pm 17.5 15.7 8.1 54 4.8 ENE 7 11 4 6 1020.7 - 0.0
16/12:30pm 18.1 16.4 8.4 53 5.0 N 7 15 4 8 1021.3 - 0.0
16/12:00pm 18.0 16.0 8.7 54 4.8 NNW 9 13 5 7 1021.8 1021.9 0.0
16/11:30am 17.7 15.5 7.8 52 5.0 N 9 15 5 8 1022.2 - 0.0
16/11:00am 16.0 13.4 7.6 57 4.2 N 11 15 6 8 1022.4 - 0.0
16/10:30am 14.1 10.1 6.6 60 3.6 NNW 17 20 9 11 1022.6 - 0.0
16/10:00am 13.8 11.0 7.0 63 3.3 N 11 17 6 9 1023.0 - 0.0
16/09:30am 11.9 8.2 6.4 69 2.6 N 15 22 8 12 1023.2 - 0.0
16/09:00am 10.7 6.6 6.2 74 2.1 N 17 22 9 12 1023.4 1023.5 0.0
16/08:30am 10.2 6.8 6.1 76 1.9 N 13 20 7 11 1023.6 - 0.0
16/08:00am 9.1 4.9 5.8 80 1.5 NNW 17 24 9 13 1023.6 - 0.0
16/07:30am 9.1 4.9 5.8 80 1.5 NNW 17 24 9 13 1023.6 - 0.0
16/07:00am 8.2 5.2 6.0 86 1.0 NNW 11 17 6 9 1023.5 - 0.0
16/06:30am 8.2 4.8 5.8 85 1.1 NW 13 17 7 9 1023.4 - 0.0
16/06:00am 8.0 5.0 5.8 86 1.0 NW 11 19 6 10 1023.5 1023.6 0.0
16/05:30am 8.1 4.3 5.7 85 1.1 NW 15 20 8 11 1023.4 - 0.0
16/05:00am 7.9 4.9 5.9 87 0.9 NNW 11 15 6 8 1023.4 - 0.0
16/04:30am 8.6 6.6 6.2 85 1.1 N 6 11 3 6 1023.5 - 0.0
16/04:00am 8.3 5.7 6.3 87 0.9 NW 9 15 5 8 1023.3 - 0.0
16/03:30am 8.1 5.5 6.3 88 0.8 WNW 9 11 5 6 1023.5 - 0.0
16/03:00am 8.1 5.6 6.6 90 0.7 W 9 13 5 7 1023.7 1023.8 0.0
16/02:30am 8.1 5.9 6.3 88 0.8 W 7 11 4 6 1024.1 - 0.0
16/02:00am 8.5 5.7 6.8 89 0.8 N 11 13 6 7 1024.5 - 0.0
16/01:30am 8.5 6.1 6.8 89 0.8 W 9 11 5 6 1024.7 - 0.0
16/01:00am 8.6 6.1 6.6 87 0.9 WNW 9 11 5 6 1025.0 - 0.0
16/12:30am 9.1 7.6 7.0 87 1.0 WNW 4 6 2 3 1025.1 - 0.0
16/12:00am 9.5 7.1 7.2 85 1.1 W 9 13 5 7 1025.1 1025.2 0.0
 
Date/Time
EST
Temp
°C
App
Temp
°C
Dew
Point
Rel
Hum
%
Delta-T
°C
Wind Press
QNH
hPa
Press
MSL
hPa
Rain
since 9 am
mm
Dir
 
Spd
km/h
Gust
km/h
Spd
kts
Gust
kts
15/11:30pm 9.7 7.4 7.6 87 1.0 WNW 9 11 5 6 1025.4 - 0.0
15/11:00pm 10.1 9.6 8.0 87 1.0 CALM 0 2 0 1 1025.6 - 0.0
15/10:30pm 10.9 9.2 7.6 80 1.6 ENE 6 9 3 5 1025.6 - 0.0
15/10:00pm 10.5 7.5 7.6 82 1.4 W 13 15 7 8 1025.6 - 0.0
15/09:30pm 10.3 7.7 7.6 83 1.3 W 11 13 6 7 1025.8 - 0.0
15/09:00pm 10.3 8.0 7.6 83 1.3 W 9 11 5 6 1025.7 1025.8 0.0
15/08:30pm 10.6 8.3 7.5 81 1.5 WSW 9 11 5 6 1025.8 - 0.0
15/08:00pm 10.7 8.4 7.6 81 1.5 WSW 9 11 5 6 1025.7 - 0.0
15/07:30pm 11.4 9.5 7.7 78 1.8 WSW 7 9 4 5 1025.7 - 0.0
15/07:00pm 12.3 10.7 8.0 75 2.1 S 6 7 3 4 1025.5 - 0.0
15/06:30pm 13.3 11.0 7.6 68 2.8 SE 9 11 5 6 1025.3 - 0.0
15/06:00pm 13.6 12.7 7.7 67 2.9 S 2 6 1 3 1025.1 1025.2 0.0
15/05:30pm 13.9 11.5 7.1 63 3.3 SE 9 13 5 7 1025.1 - 0.0
15/05:00pm 14.1 11.6 6.6 60 3.6 SE 9 13 5 7 1025.1 - 0.0
15/04:30pm 14.2 11.6 6.0 58 3.9 ESE 9 13 5 7 1025.1 - 0.0
15/04:00pm 14.4 11.7 5.5 55 4.2 E 9 13 5 7 1025.3 - 0.0
15/03:30pm 14.7 11.2 5.6 54 4.3 ESE 13 15 7 8 1025.3 - 0.0
15/03:00pm 14.9 12.8 5.9 55 4.3 SE 6 11 3 6 1025.4 1025.5 0.0
15/02:30pm 14.9 11.3 5.1 52 4.6 SE 13 17 7 9 1025.4 - 0.0
15/02:00pm 14.8 10.9 5.2 52 4.5 SE 15 19 8 10 1025.5 - 0.0
15/01:30pm 14.6 11.0 5.0 52 4.5 E 13 17 7 9 1025.4 - 0.0
15/01:00pm 14.5 10.9 4.8 52 4.5 E 13 17 7 9 1025.5 - 0.0
15/12:30pm 14.5 10.3 4.0 49 4.8 ESE 15 19 8 10 1025.7 - 0.0
15/12:00pm 15.7 12.2 5.6 51 4.8 SW 13 19 7 10 1026.0 1026.1 0.0
15/11:30am 13.8 10.2 4.9 55 4.1 SSE 13 20 7 11 1026.5 - 0.0
15/11:00am 13.8 11.1 5.5 57 3.9 S 9 19 5 10 1026.5 - 0.0
15/10:30am 13.5 9.7 5.9 60 3.6 S 15 20 8 11 1026.6 - 0.0
15/10:00am 13.4 10.1 6.5 63 3.3 S 13 20 7 11 1026.7 - 0.0
15/09:30am 13.3 9.9 6.1 61 3.4 SSW 13 20 7 11 1026.5 - 0.0
15/09:00am 13.3 10.0 6.6 64 3.2 SSW 13 19 7 10 1026.5 1026.6 0.0
15/08:30am 12.9 11.1 7.1 68 2.8 SSW 6 9 3 5 1026.5 - 0.0
15/08:00am 12.3 10.9 7.3 71 2.4 WNW 4 7 2 4 1026.4 - 0.0
15/07:30am 12.0 11.3 7.0 71 2.4 CALM 0 6 0 3 1026.1 - 0.0
15/07:00am 11.7 9.9 7.3 74 2.1 WSW 6 13 3 7 1025.8 - 0.0
15/06:30am 11.7 8.2 7.3 74 2.1 WSW 15 19 8 10 1025.7 - 0.0
15/06:00am 11.5 8.9 7.6 77 1.9 SW 11 15 6 8 1025.6 1025.7 0.0
15/05:30am 11.6 8.9 7.4 75 2.0 SW 11 17 6 9 1025.4 - 0.0
15/05:00am 11.8 8.3 7.2 73 2.2 WSW 15 20 8 11 1025.3 - 0.0
15/04:30am 11.7 8.6 7.3 74 2.1 SW 13 22 7 12 1025.3 - 0.0
15/04:00am 11.7 8.7 7.6 76 2.0 SW 13 17 7 9 1025.3 - 0.0
15/03:30am 11.8 9.1 7.4 74 2.1 SW 11 17 6 9 1025.3 - 0.0
15/03:00am 11.9 8.9 7.6 75 2.1 SSW 13 17 7 9 1025.2 1025.3 0.0
15/02:30am 11.8 9.2 7.7 76 2.0 SW 11 19 6 10 1025.3 - 0.0
15/02:00am 11.8 9.2 7.7 76 2.0 SW 11 17 6 9 1025.3 - 0.0
15/01:30am 11.6 8.3 8.1 79 1.7 SW 15 19 8 10 1025.2 - 0.0
15/01:00am 11.7 9.2 8.4 80 1.6 WSW 11 15 6 8 1025.3 - 0.0
15/12:30am 11.9 8.7 8.4 79 1.7 SW 15 20 8 11 1025.2 - 0.0
15/12:00am 11.7 7.8 8.7 82 1.5 SW 19 26 10 14 1025.2 1025.3 0.0
 
Date/Time
EST
Temp
°C
App
Temp
°C
Dew
Point
Rel
Hum
%
Delta-T
°C
Wind Press
QNH
hPa
Press
MSL
hPa
Rain
since 9 am
mm
Dir
 
Spd
km/h
Gust
km/h
Spd
kts
Gust
kts
14/11:30pm 11.7 8.2 8.9 83 1.4 SSW 17 22 9 12 1025.4 - 0.0

Other Formats:

Comma delimited format used in spreadsheet applications
http://www.bom.gov.au/fwo/IDT60801/IDT60801.94970.axf

JavaScript Object Notation format (JSON) in row-major order
http://www.bom.gov.au/fwo/IDT60801/IDT60801.94970.json